createdAt,value
2019-05-02T00:03:46.034Z,34.77
2019-05-02T00:08:53.685Z,34.47
2019-05-02T00:14:01.284Z,36.53
2019-05-02T00:19:13.537Z,36.21
2019-05-02T00:24:16.123Z,35.71
2019-05-02T00:29:24.922Z,35.70
2019-05-02T00:34:30.887Z,32.99
2019-05-02T00:39:38.577Z,33.85
2019-05-02T00:44:46.860Z,33.77
2019-05-02T00:49:53.368Z,34.92
2019-05-02T00:55:00.974Z,36.90
2019-05-02T01:00:08.640Z,37.02
2019-05-02T01:05:16.256Z,38.11
2019-05-02T01:10:23.871Z,36.66
2019-05-02T01:15:31.462Z,39.90
2019-05-02T01:20:39.310Z,38.47
2019-05-02T01:25:47.245Z,41.10
2019-05-02T01:30:54.109Z,35.85
2019-05-02T01:36:05.776Z,38.55
2019-05-02T01:41:08.913Z,38.32
2019-05-02T01:46:17.198Z,35.83
2019-05-02T01:51:23.725Z,41.60
2019-05-02T01:56:33.067Z,38.67
2019-05-02T02:01:38.541Z,41.76
2019-05-02T02:06:46.142Z,38.19
2019-05-02T02:11:53.799Z,37.37
2019-05-02T02:17:01.398Z,40.13
2019-05-02T02:22:09.092Z,45.45
2019-05-02T02:27:19.996Z,38.59
2019-05-02T02:32:26.689Z,38.53
2019-05-02T02:37:31.030Z,38.22
2019-05-02T02:42:38.665Z,37.67
2019-05-02T02:47:46.285Z,38.52
2019-05-02T02:52:54.072Z,39.29
2019-05-02T02:58:04.800Z,41.25
2019-05-02T03:03:08.928Z,44.44
2019-05-02T03:08:16.546Z,43.62
2019-05-02T03:13:24.336Z,51.24
2019-05-02T03:18:39.502Z,58.47
2019-05-02T03:23:39.014Z,52.24
2019-05-02T03:28:57.228Z,58.28
2019-05-02T03:33:59.727Z,53.36
2019-05-02T03:39:13.279Z,53.00
2019-05-02T03:44:11.549Z,52.87
2019-05-02T03:49:15.277Z,57.80
2019-05-02T03:54:22.905Z,57.80
2019-05-02T03:59:38.486Z,57.43
2019-05-02T04:04:37.701Z,57.63
2019-05-02T04:09:45.334Z,52.91
2019-05-02T04:14:55.621Z,47.32
2019-05-02T04:20:00.182Z,48.51
2019-05-02T04:25:07.873Z,51.58
2019-05-02T04:30:15.474Z,67.19
2019-05-02T04:35:28.695Z,60.48
2019-05-02T04:40:34.910Z,68.58
2019-05-02T04:45:51.925Z,65.82
2019-05-02T04:50:44.628Z,61.82
2019-05-02T05:01:01.789Z,62.31
2019-05-02T05:06:10.235Z,58.47
2019-05-02T05:11:13.847Z,57.24
2019-05-02T05:16:20.854Z,58.84
2019-05-02T05:21:28.659Z,51.40
2019-05-02T05:26:41.008Z,51.03
2019-05-02T05:31:43.201Z,53.74
2019-05-02T05:36:50.873Z,48.01
2019-05-02T05:41:58.457Z,43.83
2019-05-02T05:47:07.364Z,45.59
2019-05-02T05:52:13.268Z,48.89
2019-05-02T05:57:21.301Z,47.86
2019-05-02T06:02:28.675Z,47.93
2019-05-02T06:07:43.525Z,49.57
2019-05-02T06:12:43.469Z,40.39
2019-05-02T06:17:51.124Z,40.61
2019-05-02T06:23:00.018Z,40.25
2019-05-02T06:28:06.777Z,39.61
2019-05-02T06:33:13.057Z,37.79
2019-05-02T06:38:21.986Z,38.19
2019-05-02T06:43:27.836Z,36.45
2019-05-02T06:48:35.529Z,40.58
2019-05-02T06:53:46.947Z,39.33
2019-05-02T06:58:50.317Z,32.95
2019-05-02T07:03:57.903Z,34.17
2019-05-02T07:09:05.637Z,30.86
2019-05-02T07:14:14.003Z,34.96
2019-05-02T07:19:21.639Z,40.76
2019-05-02T07:24:30.876Z,35.87
2019-05-02T07:29:34.730Z,36.93
2019-05-02T07:34:44.192Z,32.74
2019-05-02T07:39:49.500Z,30.97
2019-05-02T07:44:57.131Z,31.36
2019-05-02T07:50:05.310Z,31.10
2019-05-02T07:55:11.917Z,31.62
2019-05-02T08:00:19.579Z,35.23
2019-05-02T08:05:27.183Z,32.86
2019-05-02T08:10:34.827Z,35.33
2019-05-02T08:15:45.741Z,37.02
2019-05-02T08:20:51.060Z,38.64
2019-05-02T08:25:56.821Z,38.65
2019-05-02T08:31:04.465Z,37.64
2019-05-02T08:36:12.057Z,37.00
2019-05-02T08:41:20.275Z,38.39
2019-05-02T08:46:26.805Z,38.58
2019-05-02T08:51:34.449Z,45.34
2019-05-02T08:56:42.052Z,45.24
2019-05-02T09:01:51.419Z,51.77
2019-05-02T09:06:58.754Z,51.86
2019-05-02T09:12:12.235Z,56.03
2019-05-02T09:17:16.172Z,57.63
2019-05-02T09:22:18.470Z,57.45
2019-05-02T09:27:26.064Z,58.42
2019-05-02T09:32:33.699Z,59.22
2019-05-02T09:37:41.883Z,58.70
2019-05-02T09:42:52.418Z,59.74
2019-05-02T09:48:04.055Z,57.87
2019-05-02T09:53:02.962Z,58.63
2019-05-02T09:58:14.932Z,56.10
2019-05-02T10:03:17.752Z,57.66
2019-05-02T10:08:25.382Z,58.37
2019-05-02T10:13:33.037Z,59.84
2019-05-02T10:18:42.954Z,61.19
2019-05-02T10:23:51.783Z,65.96
2019-05-02T10:28:54.973Z,59.20
2019-05-02T10:34:02.647Z,60.62
2019-05-02T10:39:15.460Z,62.81
2019-05-02T10:44:17.405Z,57.85
2019-05-02T10:49:24.987Z,59.21
2019-05-02T10:54:36.136Z,56.91
2019-05-02T10:59:41.953Z,52.66
2019-05-02T11:04:46.945Z,54.05
2019-05-02T11:09:57.325Z,50.48
2019-05-02T11:15:02.307Z,55.17
2019-05-02T11:20:08.898Z,51.81
2019-05-02T11:25:16.571Z,47.11
2019-05-02T11:30:26.535Z,47.13
2019-05-02T11:35:31.884Z,44.79
2019-05-02T11:40:38.594Z,44.39
2019-05-02T11:45:46.316Z,46.74
2019-05-02T11:50:53.930Z,45.19
2019-05-02T11:56:05.709Z,42.03
2019-05-02T12:01:08.697Z,43.77
2019-05-02T12:06:19.555Z,42.58
2019-05-02T12:11:23.452Z,42.02
2019-05-02T12:16:33.133Z,43.59
2019-05-02T12:21:41.995Z,39.41
2019-05-02T12:26:47.921Z,40.65
2019-05-02T12:31:56.419Z,42.17
2019-05-02T12:37:02.690Z,39.56
2019-05-02T12:42:12.445Z,42.06
2019-05-02T12:47:17.541Z,42.84
2019-05-02T12:52:25.138Z,42.29
2019-05-02T12:57:32.776Z,38.84
2019-05-02T13:02:41.684Z,38.58
2019-05-02T13:07:50.747Z,42.87
2019-05-02T13:12:54.721Z,37.95
2019-05-02T13:18:02.971Z,38.28
2019-05-02T13:23:09.539Z,37.63
2019-05-02T13:28:21.679Z,34.79
2019-05-02T13:33:27.252Z,33.94
2019-05-02T13:38:32.923Z,33.46
2019-05-02T13:43:38.673Z,31.47
2019-05-02T13:48:46.338Z,32.51
2019-05-02T13:53:53.953Z,34.74
2019-05-02T13:59:02.691Z,29.79
2019-05-02T14:04:10.231Z,29.09
2019-05-02T14:09:18.989Z,30.14
2019-05-02T14:14:23.073Z,29.15
2019-05-02T14:19:31.922Z,33.35
2019-05-02T14:24:37.880Z,43.38
2019-05-02T14:29:45.535Z,51.42
2019-05-02T14:34:53.114Z,52.84
2019-05-02T14:40:02.223Z,62.12
2019-05-02T14:45:19.865Z,58.76
2019-05-02T14:50:23.671Z,45.51
2019-05-02T14:55:25.633Z,48.53
2019-05-02T15:00:33.392Z,50.74
2019-05-02T15:05:36.428Z,48.45
2019-05-02T15:10:52.765Z,46.76
2019-05-02T15:15:53.003Z,44.49
2019-05-02T15:20:58.480Z,40.15
2019-05-02T15:26:06.090Z,37.75
2019-05-02T15:31:13.751Z,33.69
2019-05-02T15:36:22.071Z,31.73
2019-05-02T15:41:28.621Z,30.32
2019-05-02T15:46:36.225Z,31.36
2019-05-02T15:51:49.564Z,32.22
2019-05-02T15:56:52.233Z,32.09
2019-05-02T16:01:58.229Z,35.18
2019-05-02T16:07:08.402Z,28.67
2019-05-02T16:12:12.985Z,36.14
2019-05-02T16:17:22.200Z,43.45
2019-05-02T16:22:27.723Z,41.40
2019-05-02T16:27:35.333Z,27.21
2019-05-02T16:32:44.219Z,39.82
2019-05-02T16:37:52.347Z,41.50
2019-05-02T16:42:57.300Z,49.36
2019-05-02T16:48:04.931Z,57.06
2019-05-02T16:53:12.591Z,60.47
2019-05-02T16:58:20.193Z,61.90
2019-05-02T17:03:27.960Z,52.71
2019-05-02T17:08:35.593Z,53.23
2019-05-02T17:13:43.176Z,51.70
2019-05-02T17:18:54.976Z,38.96
2019-05-02T17:23:57.934Z,37.97
2019-05-02T17:29:05.545Z,48.11
2019-05-02T17:34:14.846Z,63.38
2019-05-02T17:39:22.164Z,89.48
2019-05-02T17:44:27.670Z,77.63
2019-05-02T17:49:36.779Z,97.40
2019-05-02T17:54:42.519Z,105.43
2019-05-02T17:59:51.906Z,142.81
2019-05-02T18:04:57.307Z,133.01
2019-05-02T18:10:13.125Z,128.57
2019-05-02T18:15:12.160Z,113.90
2019-05-02T18:20:21.828Z,116.20
2019-05-02T18:25:26.993Z,118.31
2019-05-02T18:30:34.620Z,134.22
2019-05-02T18:35:45.332Z,142.85
2019-05-02T18:40:49.404Z,146.20
2019-05-02T18:45:58.055Z,160.97
2019-05-02T18:51:04.174Z,166.15
2019-05-02T18:56:12.480Z,210.23
2019-05-02T19:01:20.910Z,196.19
2019-05-02T19:06:28.012Z,181.14
2019-05-02T19:11:35.187Z,158.04
2019-05-02T19:16:42.520Z,150.76
2019-05-02T19:21:47.639Z,140.92
2019-05-02T19:26:56.508Z,157.48
2019-05-02T19:32:02.550Z,147.94
2019-05-02T19:37:12.017Z,158.22
2019-05-02T19:42:21.910Z,166.61
2019-05-02T19:47:24.522Z,152.12
2019-05-02T19:52:38.831Z,159.23
2019-05-02T19:57:39.319Z,146.31
2019-05-02T20:02:46.914Z,171.35
2019-05-02T20:07:54.655Z,146.78
2019-05-02T20:13:03.157Z,176.83
2019-05-02T20:18:09.547Z,106.08
2019-05-02T20:23:18.735Z,63.20
2019-05-02T20:28:24.314Z,49.05
2019-05-02T20:33:32.545Z,42.50
2019-05-02T20:38:39.177Z,43.98
2019-05-02T20:43:46.820Z,34.30
2019-05-02T20:48:54.702Z,23.57
2019-05-02T20:54:02.346Z,22.62
2019-05-02T20:59:10.020Z,26.01
2019-05-02T21:04:17.643Z,26.47
2019-05-02T21:09:25.304Z,19.02
2019-05-02T21:14:32.939Z,16.35
2019-05-02T21:19:41.755Z,16.33
2019-05-02T21:24:47.753Z,17.76
2019-05-02T21:29:55.414Z,14.78
2019-05-02T21:35:03.046Z,13.11
2019-05-02T21:40:11.824Z,13.47
2019-05-02T21:45:18.008Z,12.22
2019-05-02T21:50:25.769Z,11.18
2019-05-02T21:55:34.902Z,12.37
2019-05-02T22:00:45.357Z,13.73
2019-05-02T22:05:43.253Z,11.20
2019-05-02T22:10:52.129Z,10.48
2019-05-02T22:15:58.096Z,10.55
2019-05-02T22:21:05.784Z,11.07
2019-05-02T22:26:13.414Z,11.47
2019-05-02T22:31:22.739Z,9.67
2019-05-02T22:36:28.397Z,14.25
2019-05-02T22:41:36.055Z,10.52
2019-05-02T22:46:43.761Z,12.31
2019-05-02T22:51:51.387Z,9.85
2019-05-02T22:56:59.023Z,9.91
2019-05-02T23:02:06.750Z,10.16
2019-05-02T23:07:14.380Z,9.93
2019-05-02T23:12:22.530Z,10.65
2019-05-02T23:17:29.206Z,12.41
2019-05-02T23:22:36.891Z,10.53
2019-05-02T23:27:44.514Z,12.49
2019-05-02T23:32:52.234Z,11.24
2019-05-02T23:37:59.874Z,10.92
2019-05-02T23:43:07.552Z,9.48
2019-05-02T23:48:15.177Z,10.48
2019-05-02T23:53:22.850Z,9.89
2019-05-02T23:58:32.010Z,9.41
